createdAt,value
2022-10-01T00:03:02.006Z,6.35
2022-10-01T00:08:03.415Z,6.05
2022-10-01T00:13:04.871Z,5.90
2022-10-01T00:18:06.439Z,5.22
2022-10-01T00:23:07.874Z,5.40
2022-10-01T00:28:09.580Z,5.13
2022-10-01T00:33:11.017Z,5.30
2022-10-01T00:38:15.216Z,5.20
2022-10-01T00:43:28.680Z,4.57
2022-10-01T00:48:34.768Z,5.00
2022-10-01T00:53:37.770Z,5.30
2022-10-01T00:58:39.634Z,4.55
2022-10-01T01:03:41.034Z,4.93
2022-10-01T01:08:43.223Z,5.50
2022-10-01T01:14:01.857Z,6.05
2022-10-01T01:19:14.797Z,6.78
2022-10-01T01:24:47.711Z,6.47
2022-10-01T01:30:04.150Z,7.63
2022-10-01T01:35:08.987Z,7.03
2022-10-01T01:40:12.396Z,7.65
2022-10-01T01:45:21.013Z,8.55
2022-10-01T01:50:25.521Z,7.90
2022-10-01T01:55:29.920Z,8.40
2022-10-01T02:00:31.295Z,7.55
2022-10-01T02:05:43.436Z,8.15
2022-10-01T02:11:06.542Z,8.02
2022-10-01T02:16:21.017Z,6.43
2022-10-01T02:21:40.064Z,7.55
2022-10-01T02:26:45.677Z,6.57
2022-10-01T02:31:49.232Z,6.85
2022-10-01T02:36:52.644Z,7.57
2022-10-01T02:41:56.394Z,7.43
2022-10-01T02:47:07.773Z,7.30
2022-10-01T02:52:23.571Z,7.40
2022-10-01T02:57:29.519Z,7.53
2022-10-01T03:02:31.746Z,7.20
2022-10-01T03:07:35.587Z,7.18
2022-10-01T03:12:37.552Z,7.07
2022-10-01T03:17:39.049Z,6.03
2022-10-01T03:22:40.407Z,6.28
2022-10-01T03:27:42.534Z,6.30
2022-10-01T03:32:43.930Z,5.82
2022-10-01T03:37:47.578Z,6.15
2022-10-01T03:42:50.052Z,6.72
2022-10-01T03:47:52.538Z,7.30
2022-10-01T03:52:53.885Z,8.75
2022-10-01T03:57:55.260Z,8.60
2022-10-01T04:02:56.680Z,8.32
2022-10-01T04:07:59.616Z,9.50
2022-10-01T04:13:01.246Z,9.70
2022-10-01T04:18:06.146Z,10.40
2022-10-01T04:23:07.518Z,10.63
2022-10-01T04:28:11.543Z,10.02
2022-10-01T04:33:15.890Z,11.02
2022-10-01T04:38:17.343Z,11.50
2022-10-01T04:43:18.750Z,10.25
2022-10-01T04:48:20.322Z,10.43
2022-10-01T04:53:21.766Z,9.50
2022-10-01T04:58:23.185Z,7.95
2022-10-01T05:03:24.608Z,6.88
2022-10-01T05:08:26.017Z,7.82
2022-10-01T05:13:31.725Z,6.93
2022-10-01T05:18:33.170Z,6.68
2022-10-01T05:23:34.615Z,5.20
2022-10-01T05:28:36.215Z,5.80
2022-10-01T05:33:37.929Z,5.25
2022-10-01T05:38:39.432Z,4.82
2022-10-01T05:43:40.793Z,6.78
2022-10-01T05:48:42.175Z,5.18
2022-10-01T05:53:47.070Z,4.97
2022-10-01T06:03:52.998Z,4.80
2022-10-01T06:08:54.371Z,4.50
2022-10-01T06:13:55.988Z,5.22
2022-10-01T06:18:57.980Z,4.80
2022-10-01T06:23:59.435Z,5.20
2022-10-01T06:29:01.303Z,4.95
2022-10-01T06:34:02.785Z,4.55
2022-10-01T06:39:04.310Z,5.20
2022-10-01T06:44:05.674Z,5.75
2022-10-01T06:49:07.150Z,5.20
2022-10-01T06:54:08.968Z,5.57
2022-10-01T06:59:10.328Z,4.43
2022-10-01T07:04:13.075Z,5.00
2022-10-01T07:09:14.468Z,5.07
2022-10-01T07:14:15.832Z,5.40
2022-10-01T07:19:17.168Z,4.10
2022-10-01T07:24:18.510Z,4.65
2022-10-01T07:29:19.882Z,5.13
2022-10-01T07:34:22.197Z,5.00
2022-10-01T07:39:24.164Z,4.90
2022-10-01T07:44:27.739Z,4.35
2022-10-01T07:49:29.200Z,5.35
2022-10-01T07:54:30.562Z,4.78
2022-10-01T07:59:33.180Z,5.07
2022-10-01T08:04:52.985Z,5.60
2022-10-01T08:09:54.367Z,4.75
2022-10-01T08:14:55.953Z,5.65
2022-10-01T08:19:57.357Z,5.75
2022-10-01T08:24:58.751Z,6.05
2022-10-01T08:30:00.178Z,6.00
2022-10-01T08:35:01.598Z,4.75
2022-10-01T08:40:03.565Z,5.80
2022-10-01T08:45:12.535Z,6.68
2022-10-01T08:50:35.294Z,5.80
2022-10-01T08:55:37.569Z,6.00
2022-10-01T09:00:43.933Z,5.03
2022-10-01T09:05:59.072Z,4.05
2022-10-01T09:11:06.986Z,4.15
2022-10-01T09:16:27.127Z,4.47
2022-10-01T09:21:48.073Z,4.07
2022-10-01T09:26:49.490Z,2.78
2022-10-01T09:31:53.352Z,2.97
2022-10-01T09:37:05.535Z,2.40
2022-10-01T09:42:07.359Z,3.33
2022-10-01T09:47:17.529Z,3.40
2022-10-01T09:52:27.065Z,3.72
2022-10-01T09:57:33.679Z,2.63
2022-10-01T10:02:48.943Z,2.30
2022-10-01T10:07:58.708Z,2.08
2022-10-01T10:13:17.911Z,2.28
2022-10-01T10:18:28.442Z,3.08
2022-10-01T10:23:29.911Z,3.95
2022-10-01T10:28:44.297Z,2.95
2022-10-01T10:33:51.121Z,3.47
2022-10-01T10:38:53.585Z,2.50
2022-10-01T10:44:07.294Z,2.88
2022-10-01T10:49:23.389Z,2.08
2022-10-01T10:54:37.516Z,2.10
2022-10-01T10:59:39.024Z,1.92
2022-10-01T11:04:44.170Z,2.30
2022-10-01T11:09:57.790Z,3.53
2022-10-01T11:15:17.127Z,2.05
2022-10-01T11:20:38.611Z,1.67
2022-10-01T11:26:14.014Z,1.70
2022-10-01T11:31:22.612Z,1.48
2022-10-01T11:37:01.681Z,1.95
2022-10-01T11:42:10.203Z,1.35
2022-10-01T11:47:19.362Z,2.20
2022-10-01T11:52:33.904Z,2.70
2022-10-01T11:57:54.295Z,1.75
2022-10-01T12:03:02.305Z,2.30
2022-10-01T12:08:12.104Z,2.50
2022-10-01T12:13:25.500Z,2.40
2022-10-01T12:18:51.791Z,1.35
2022-10-01T12:24:15.532Z,1.60
2022-10-01T12:29:32.650Z,1.00
2022-10-01T12:34:44.244Z,1.58
2022-10-01T12:39:58.074Z,1.13
2022-10-01T12:45:06.148Z,0.80
2022-10-01T12:50:36.127Z,1.00
2022-10-01T12:55:46.483Z,0.50
2022-10-01T13:01:00.541Z,0.50
2022-10-01T13:06:23.395Z,0.50
2022-10-01T13:11:58.307Z,0.40
2022-10-01T13:17:06.531Z,0.80
2022-10-01T13:22:18.781Z,0.52
2022-10-01T13:27:40.405Z,0.63
2022-10-01T13:32:58.395Z,1.00
2022-10-01T13:38:01.128Z,0.90
2022-10-01T13:43:24.031Z,0.68
2022-10-01T13:48:29.622Z,0.70
2022-10-01T13:53:36.088Z,0.40
2022-10-01T13:58:41.984Z,0.60
2022-10-01T14:03:58.112Z,0.40
2022-10-01T14:09:23.878Z,0.70
2022-10-01T14:14:52.558Z,0.47
2022-10-01T14:19:54.447Z,0.45
2022-10-01T14:25:10.125Z,0.40
2022-10-01T14:30:24.301Z,0.40
2022-10-01T14:35:35.164Z,0.70
2022-10-01T14:40:39.886Z,0.40
2022-10-01T14:45:56.271Z,0.30
2022-10-01T14:51:01.281Z,0.27
2022-10-01T14:56:08.324Z,0.20
2022-10-01T15:06:24.043Z,0.20
2022-10-01T15:11:30.892Z,0.20
2022-10-01T15:16:33.650Z,0.10
2022-10-01T15:21:45.224Z,0.25
2022-10-01T15:26:48.642Z,0.20
2022-10-01T15:31:53.181Z,0.10
2022-10-01T15:36:55.383Z,0.73
2022-10-01T15:41:59.117Z,0.20
2022-10-01T15:47:15.098Z,0.30
2022-10-01T15:52:35.104Z,0.70
2022-10-01T15:57:38.217Z,1.40
2022-10-01T16:02:39.816Z,0.30
2022-10-01T16:07:42.150Z,0.32
2022-10-01T16:12:43.691Z,0.20
2022-10-01T16:18:02.428Z,0.50
2022-10-01T16:23:34.015Z,0.30
2022-10-01T16:28:35.856Z,0.45
2022-10-01T16:33:37.469Z,0.40
2022-10-01T16:38:38.898Z,0.35
2022-10-01T16:43:40.340Z,0.20
2022-10-01T16:48:41.764Z,0.30
2022-10-01T16:53:43.516Z,0.50
2022-10-01T16:58:45.664Z,0.52
2022-10-01T17:03:47.307Z,1.00
2022-10-01T17:08:48.703Z,0.77
2022-10-01T17:13:50.145Z,0.60
2022-10-01T17:18:51.630Z,0.50
2022-10-01T17:23:53.663Z,1.00
2022-10-01T17:28:55.130Z,0.85
2022-10-01T17:33:57.043Z,0.70
2022-10-01T17:38:58.872Z,0.60
2022-10-01T17:44:00.501Z,0.73
2022-10-01T17:49:02.077Z,0.70
2022-10-01T17:54:04.564Z,0.50
2022-10-01T17:59:05.927Z,1.00
2022-10-01T18:04:07.269Z,0.60
2022-10-01T18:09:08.637Z,0.95
2022-10-01T18:14:10.079Z,0.50
2022-10-01T18:24:34.491Z,1.25
2022-10-01T18:29:35.879Z,0.60
2022-10-01T18:35:14.085Z,0.60
2022-10-01T18:40:42.389Z,0.73
2022-10-01T18:46:05.523Z,0.50
2022-10-01T18:51:27.503Z,0.60
2022-10-01T18:56:35.647Z,0.68
2022-10-01T19:02:05.597Z,0.80
2022-10-01T19:07:46.310Z,1.27
2022-10-01T19:13:12.062Z,0.82
2022-10-01T19:18:32.539Z,1.58
2022-10-01T19:24:03.994Z,0.70
2022-10-01T19:29:31.064Z,0.45
2022-10-01T19:34:41.339Z,0.97
2022-10-01T19:39:46.106Z,0.70
2022-10-01T19:45:00.575Z,0.75
2022-10-01T19:50:17.091Z,0.50
2022-10-01T19:55:22.769Z,1.13
2022-10-01T20:00:24.323Z,0.70
2022-10-01T20:05:37.172Z,0.70
2022-10-01T20:10:47.721Z,1.15
2022-10-01T20:16:12.498Z,0.65
2022-10-01T20:21:26.626Z,1.00
2022-10-01T20:26:57.021Z,1.60
2022-10-01T20:32:13.263Z,0.85
2022-10-01T20:37:38.034Z,0.88
2022-10-01T20:42:46.585Z,1.13
2022-10-01T20:47:54.549Z,1.02
2022-10-01T20:53:04.741Z,0.70
2022-10-01T20:58:29.093Z,0.90
2022-10-01T21:03:34.580Z,0.93
2022-10-01T21:08:42.333Z,0.65
2022-10-01T21:13:51.930Z,0.82
2022-10-01T21:19:30.305Z,1.20
2022-10-01T21:24:50.246Z,1.27
2022-10-01T21:30:13.814Z,0.50
2022-10-01T21:35:47.892Z,1.00
2022-10-01T21:41:15.872Z,0.93
2022-10-01T21:46:30.490Z,0.57
2022-10-01T21:51:55.274Z,0.43
2022-10-01T21:57:31.221Z,0.55
2022-10-01T22:02:50.319Z,0.65
2022-10-01T22:08:07.100Z,0.70
2022-10-01T22:13:19.789Z,0.60
2022-10-01T22:18:45.302Z,0.90
2022-10-01T22:23:53.191Z,1.30
2022-10-01T22:28:56.139Z,1.00
2022-10-01T22:34:03.043Z,0.70
2022-10-01T22:39:19.145Z,0.90
2022-10-01T22:44:22.666Z,1.80
2022-10-01T22:50:18.607Z,0.60
2022-10-01T22:55:47.213Z,0.90
2022-10-01T23:01:01.610Z,1.58
2022-10-01T23:06:19.475Z,0.77
2022-10-01T23:11:51.345Z,1.63
2022-10-01T23:17:18.711Z,1.02
2022-10-01T23:23:16.489Z,0.50
2022-10-01T23:28:49.595Z,1.13
2022-10-01T23:34:04.422Z,0.93
2022-10-01T23:39:33.918Z,0.60
2022-10-01T23:44:51.767Z,0.60
2022-10-01T23:49:55.233Z,1.20
2022-10-01T23:55:30.771Z,1.45
